Hovedside
METAR-TAF:

METAR-TAF

Lufthavner :

Heidrun, Norge

Heidrunfeltet

breddegrad: 65-19-30N, lengdegrad: 007-19-36E, høyde over havet: 0 m

Gjeldene værobservasjon

Denne rapporten ble laget for 43 minutter siden, klokken 09:50 UTC
Vind 3 kt fra Sør-sørvest
Temperatur 11°C
Luftfuktighet 82%
Trykk 992 hPa
Sikt 10 km eller mer
Brutte skyer i en høyde av 1600 ft

METAR: ENHE 250950Z 20003KT 9999 BKN016 11/08 Q0992 W///S4

Tid: 12:33 (10:33 UTC)


TAF: fraværende

Værobservasjoner og værvarsel for over 4000 flyplasser (METAR- og TAF-rapporter).

Tilgjengelige stasjoner er representert av de røde og gule prikkene på kartet.

Hold musepekeren over prikken for å se navnet på stasjonen.

Klikk så for å se værobservasjoner og -varsler.

For å forandre kartet kan du klikke på den grønne knappen med svart kryss for å zoome inn, på den grønne knappen med strek for å zoome ut, eller på de grønne pilene for å se tilstøtende kart.


METAR-TAF: